createdAt,value
2019-06-08T00:00:52.086Z,100983.91
2019-06-08T00:03:20.774Z,100966.06
2019-06-08T00:05:49.337Z,100962.38
2019-06-08T00:08:19.050Z,100955.52
2019-06-08T00:10:47.643Z,100957.05
2019-06-08T00:13:17.031Z,100946.80
2019-06-08T00:15:45.656Z,100952.04
2019-06-08T00:18:15.255Z,100956.78
2019-06-08T00:20:43.789Z,100953.96
2019-06-08T00:23:13.650Z,100958.36
2019-06-08T00:25:42.229Z,100962.10
2019-06-08T00:28:10.671Z,100957.73
2019-06-08T00:30:39.255Z,100979.33
2019-06-08T00:33:07.657Z,100969.26
2019-06-08T00:35:36.102Z,100960.69
2019-06-08T00:38:04.528Z,100955.98
2019-06-08T00:40:32.967Z,100958.86
2019-06-08T00:43:01.398Z,100948.27
2019-06-08T00:45:29.894Z,100960.07
2019-06-08T00:47:58.384Z,100966.86
2019-06-08T00:50:26.775Z,100976.48
2019-06-08T00:52:55.204Z,100988.80
2019-06-08T00:55:23.807Z,100983.41
2019-06-08T00:57:52.248Z,100986.45
2019-06-08T01:00:22.519Z,100974.05
2019-06-08T01:02:51.139Z,100958.07
2019-06-08T01:05:19.950Z,100961.95
2019-06-08T01:07:48.479Z,100963.01
2019-06-08T01:10:17.345Z,100959.98
2019-06-08T01:12:45.792Z,100963.03
2019-06-08T01:15:15.411Z,100955.47
2019-06-08T01:17:43.856Z,100963.42
2019-06-08T01:20:12.722Z,100964.56
2019-06-08T01:22:41.181Z,100929.52
2019-06-08T01:25:10.115Z,100946.28
2019-06-08T01:27:38.553Z,100970.36
2019-06-08T01:30:08.889Z,100963.50
2019-06-08T01:32:37.485Z,100942.48
2019-06-08T01:35:06.367Z,100937.42
2019-06-08T01:37:34.872Z,100950.06
2019-06-08T01:40:05.013Z,100895.59
2019-06-08T01:42:33.444Z,100860.94
2019-06-08T01:45:02.177Z,100901.99
2019-06-08T01:47:32.318Z,100933.47
2019-06-08T01:50:00.855Z,100954.66
2019-06-08T01:52:29.291Z,100967.12
2019-06-08T01:54:57.790Z,100958.36
2019-06-08T01:57:27.182Z,100969.64
2019-06-08T01:59:55.754Z,100950.30
2019-06-08T02:02:24.211Z,100946.14
2019-06-08T02:04:52.640Z,100947.31
2019-06-08T02:07:21.167Z,100930.50
2019-06-08T02:09:49.607Z,100919.73
2019-06-08T02:12:18.040Z,100903.59
2019-06-08T02:14:46.764Z,100931.34
2019-06-08T02:17:15.206Z,100947.99
2019-06-08T02:19:43.651Z,100957.25
2019-06-08T02:22:12.132Z,100961.80
2019-06-08T02:24:40.612Z,100958.60
2019-06-08T02:27:09.054Z,100957.58
2019-06-08T02:29:37.589Z,100961.00
2019-06-08T02:32:06.012Z,100972.56
2019-06-08T02:34:35.851Z,100962.30
2019-06-08T02:37:04.762Z,100969.03
2019-06-08T02:39:35.299Z,100976.59
2019-06-08T02:42:03.327Z,100990.39
2019-06-08T02:44:32.211Z,100995.64
2019-06-08T02:47:00.804Z,100989.92
2019-06-08T02:49:30.733Z,100990.26
2019-06-08T02:52:01.172Z,100993.79
2019-06-08T02:54:30.113Z,100985.05
2019-06-08T02:56:59.808Z,100996.98
2019-06-08T02:59:29.426Z,100985.13
2019-06-08T03:01:59.866Z,100973.74
2019-06-08T03:04:32.268Z,100978.48
2019-06-08T03:07:03.716Z,100985.38
2019-06-08T03:09:34.822Z,100995.48
2019-06-08T03:12:06.831Z,100996.82
2019-06-08T03:14:35.606Z,100992.62
2019-06-08T03:17:05.628Z,101002.37
2019-06-08T03:19:35.681Z,101007.08
2019-06-08T03:22:04.195Z,101004.08
2019-06-08T03:24:34.385Z,100982.36
2019-06-08T03:27:02.044Z,100983.88
2019-06-08T03:29:30.421Z,100982.98
2019-06-08T03:31:59.259Z,100967.89
2019-06-08T03:34:27.714Z,100987.91
2019-06-08T03:36:57.514Z,100979.16
2019-06-08T03:39:26.237Z,100964.86
2019-06-08T03:43:30.042Z,100975.80
2019-06-08T03:44:24.846Z,100981.17
2019-06-08T03:46:53.275Z,100984.34
2019-06-08T03:49:40.271Z,100966.67
2019-06-08T03:51:51.853Z,100965.50
2019-06-08T03:54:20.319Z,100966.33
2019-06-08T03:56:48.779Z,100953.20
2019-06-08T03:59:17.225Z,100974.06
2019-06-08T04:01:46.138Z,100967.63
2019-06-08T04:04:14.775Z,100963.80
2019-06-08T04:06:43.806Z,100976.05
2019-06-08T04:09:12.297Z,100964.60
2019-06-08T04:11:42.351Z,100970.36
2019-06-08T04:14:10.880Z,100975.07
2019-06-08T04:16:40.194Z,100986.34
2019-06-08T04:19:09.024Z,100989.67
2019-06-08T04:21:37.903Z,100978.61
2019-06-08T04:24:06.373Z,100981.47
2019-06-08T04:26:34.802Z,100990.01
2019-06-08T04:29:03.278Z,100972.01
2019-06-08T04:31:31.708Z,100980.75
2019-06-08T04:34:00.143Z,100978.91
2019-06-08T04:36:28.571Z,100985.17
2019-06-08T04:38:57.116Z,100999.93
2019-06-08T04:41:25.532Z,101005.31
2019-06-08T04:43:53.999Z,101011.20
2019-06-08T04:46:22.436Z,101012.72
2019-06-08T04:48:50.864Z,101015.07
2019-06-08T04:51:19.318Z,101029.03
2019-06-08T04:53:49.587Z,101017.27
2019-06-08T04:56:17.883Z,101044.34
2019-06-08T04:58:48.318Z,101029.53
2019-06-08T05:01:16.493Z,101043.84
2019-06-08T05:03:45.605Z,101054.94
2019-06-08T05:06:15.183Z,101062.64
2019-06-08T05:08:45.133Z,101064.33
2019-06-08T05:11:13.831Z,101055.23
2019-06-08T05:13:43.340Z,101069.03
2019-06-08T05:16:11.876Z,101060.23
2019-06-08T05:18:41.367Z,101051.99
2019-06-08T05:21:09.898Z,101064.59
2019-06-08T05:23:39.270Z,101043.83
2019-06-08T05:26:07.748Z,101051.39
2019-06-08T05:28:36.180Z,101072.73
2019-06-08T05:31:04.603Z,101092.91
2019-06-08T05:33:33.042Z,101101.33
2019-06-08T05:36:01.473Z,101074.02
2019-06-08T05:38:29.917Z,101080.86
2019-06-08T05:40:58.337Z,101105.45
2019-06-08T05:43:26.781Z,101099.86
2019-06-08T05:45:55.201Z,101098.19
2019-06-08T05:48:23.630Z,101097.84
2019-06-08T05:51:03.392Z,101097.84
2019-06-08T05:53:21.757Z,101083.97
2019-06-08T05:55:50.279Z,101074.94
2019-06-08T05:58:18.825Z,101071.78
2019-06-08T06:00:48.333Z,101071.39
2019-06-08T06:03:16.892Z,101081.83
2019-06-08T06:05:46.481Z,101075.93
2019-06-08T06:08:18.978Z,101102.74
2019-06-08T06:10:45.151Z,101106.40
2019-06-08T06:13:13.658Z,101097.41
2019-06-08T06:15:42.987Z,101089.80
2019-06-08T06:18:11.172Z,101092.68
2019-06-08T06:20:39.528Z,101094.59
2019-06-08T06:23:07.981Z,101088.08
2019-06-08T06:25:36.407Z,101094.59
2019-06-08T06:28:06.409Z,101090.16
2019-06-08T06:30:34.400Z,101099.70
2019-06-08T06:33:02.814Z,101101.66
2019-06-08T06:35:31.234Z,101120.25
2019-06-08T06:37:59.659Z,101105.16
2019-06-08T06:40:28.098Z,101116.80
2019-06-08T06:42:56.552Z,101126.34
2019-06-08T06:45:25.026Z,101125.69
2019-06-08T06:47:53.428Z,101124.48
2019-06-08T06:50:21.859Z,101124.16
2019-06-08T06:52:50.787Z,101129.41
2019-06-08T06:55:19.470Z,101125.56
2019-06-08T06:57:49.181Z,101133.13
2019-06-08T07:00:20.858Z,101137.20
2019-06-08T07:02:50.030Z,101130.19
2019-06-08T07:05:18.493Z,101137.92
2019-06-08T07:07:48.102Z,101130.88
2019-06-08T07:10:16.636Z,101129.34
2019-06-08T07:12:45.077Z,101133.03
2019-06-08T07:15:16.557Z,101131.70
2019-06-08T07:17:46.065Z,101134.12
2019-06-08T07:20:14.699Z,101145.19
2019-06-08T07:22:43.118Z,101151.06
2019-06-08T07:25:11.725Z,101149.83
2019-06-08T07:27:40.155Z,101161.21
2019-06-08T07:30:09.048Z,101165.05
2019-06-08T07:32:37.465Z,101163.84
2019-06-08T07:35:09.005Z,101156.16
2019-06-08T07:37:37.444Z,101124.53
2019-06-08T07:40:07.218Z,101164.30
2019-06-08T07:42:35.637Z,101162.53
2019-06-08T07:45:05.593Z,101172.34
2019-06-08T07:47:34.048Z,101159.31
2019-06-08T07:50:04.620Z,101167.42
2019-06-08T07:52:32.654Z,101176.25
2019-06-08T07:55:01.087Z,101173.03
2019-06-08T07:57:29.516Z,101189.55
2019-06-08T07:59:57.942Z,101188.20
2019-06-08T08:02:26.397Z,101179.56
2019-06-08T08:04:54.830Z,101193.09
2019-06-08T08:07:23.264Z,101178.48
2019-06-08T08:09:53.172Z,101177.66
2019-06-08T08:12:21.750Z,101193.28
2019-06-08T08:14:51.305Z,101197.02
2019-06-08T08:17:19.179Z,101207.45
2019-06-08T08:19:48.916Z,101199.80
2019-06-08T08:22:23.106Z,101213.81
2019-06-08T08:24:50.441Z,101202.20
2019-06-08T08:27:18.085Z,101211.80
2019-06-08T08:29:47.579Z,101209.66
2019-06-08T08:32:18.654Z,101215.63
2019-06-08T08:34:47.617Z,101216.98
2019-06-08T08:37:17.566Z,101216.47
2019-06-08T08:39:47.386Z,101225.20
2019-06-08T08:42:17.955Z,101221.43
2019-06-08T08:44:48.493Z,101227.03
2019-06-08T08:47:18.532Z,101232.44
2019-06-08T08:49:47.972Z,101225.38
2019-06-08T08:52:17.463Z,101237.34
2019-06-08T08:54:47.504Z,101237.66
2019-06-08T08:57:18.164Z,101237.30
2019-06-08T08:59:47.651Z,101242.85
2019-06-08T09:02:20.764Z,101240.25
2019-06-08T09:04:47.709Z,101248.30
2019-06-08T09:07:18.206Z,101233.72
2019-06-08T09:09:48.192Z,101257.11
2019-06-08T09:12:18.274Z,101253.85
2019-06-08T09:14:47.950Z,101264.89
2019-06-08T09:17:18.078Z,101269.42
2019-06-08T09:19:48.062Z,101278.98
2019-06-08T09:22:18.727Z,101274.75
2019-06-08T09:24:48.595Z,101274.75
2019-06-08T09:27:17.879Z,101278.70
2019-06-08T09:29:48.189Z,101287.37
2019-06-08T09:32:17.959Z,101291.81
2019-06-08T09:34:48.331Z,101276.28
2019-06-08T09:37:18.508Z,101297.55
2019-06-08T09:39:48.308Z,101301.36
2019-06-08T09:42:20.937Z,101304.25
2019-06-08T09:44:48.300Z,101297.97
2019-06-08T09:47:18.145Z,101322.83
2019-06-08T09:49:48.000Z,101312.95
2019-06-08T09:52:18.384Z,101310.18
2019-06-08T09:54:48.129Z,101321.00
2019-06-08T09:57:18.876Z,101312.38
2019-06-08T09:59:48.202Z,101330.03
2019-06-08T10:02:18.385Z,101331.83
2019-06-08T10:04:48.378Z,101331.97
2019-06-08T10:07:18.704Z,101345.70
2019-06-08T10:09:47.361Z,101345.27
2019-06-08T10:12:18.194Z,101344.98
2019-06-08T10:14:48.881Z,101338.73
2019-06-08T10:17:20.532Z,101359.17
2019-06-08T10:19:47.684Z,101367.30
2019-06-08T10:22:18.180Z,101358.34
2019-06-08T10:24:48.839Z,101366.38
2019-06-08T10:27:18.759Z,101364.22
2019-06-08T10:29:48.343Z,101363.83
2019-06-08T10:32:18.591Z,101374.59
2019-06-08T10:34:48.094Z,101378.79
2019-06-08T10:37:18.638Z,101381.83
2019-06-08T10:39:47.862Z,101380.16
2019-06-08T10:42:17.980Z,101393.70
2019-06-08T10:44:46.548Z,101379.53
2019-06-08T10:47:14.998Z,101380.82
2019-06-08T10:49:43.473Z,101408.72
2019-06-08T10:52:12.450Z,101409.27
2019-06-08T10:54:40.917Z,101405.83
2019-06-08T10:57:09.951Z,101401.77
2019-06-08T10:59:40.297Z,101402.45
2019-06-08T11:02:13.709Z,101417.42
2019-06-08T11:04:38.845Z,101413.96
2019-06-08T11:07:13.747Z,101426.13
2019-06-08T11:09:37.884Z,101422.59
2019-06-08T11:12:11.278Z,101415.39
2019-06-08T11:14:38.274Z,101397.23
2019-06-08T11:17:09.549Z,101439.66
2019-06-08T11:19:37.657Z,101404.22
2019-06-08T11:22:12.165Z,101432.79
2019-06-08T11:24:38.597Z,101444.55
2019-06-08T11:27:10.610Z,101444.47
2019-06-08T11:29:38.394Z,101435.65
2019-06-08T11:32:10.947Z,101438.35
2019-06-08T11:34:37.811Z,101436.31
2019-06-08T11:37:09.368Z,101443.95
2019-06-08T11:39:38.169Z,101443.45
2019-06-08T11:42:09.809Z,101434.03
2019-06-08T11:44:38.965Z,101402.93
2019-06-08T11:47:09.759Z,101444.89
2019-06-08T11:49:37.144Z,101455.20
2019-06-08T11:52:06.863Z,101456.55
2019-06-08T11:54:40.005Z,101464.97
2019-06-08T11:57:04.915Z,101462.23
2019-06-08T11:59:34.053Z,101462.66
2019-06-08T12:02:03.549Z,101458.15
2019-06-08T12:04:32.108Z,101448.11
2019-06-08T12:07:00.534Z,101463.02
2019-06-08T12:09:28.961Z,101483.08
2019-06-08T12:11:58.154Z,101473.36
2019-06-08T12:14:26.627Z,101478.28
2019-06-08T12:16:55.055Z,101465.44
2019-06-08T12:19:23.481Z,101471.47
2019-06-08T12:21:51.923Z,101471.41
2019-06-08T12:24:20.617Z,101474.51
2019-06-08T12:26:52.725Z,101471.92
2019-06-08T12:29:19.015Z,101464.94
2019-06-08T12:31:47.545Z,101455.64
2019-06-08T12:34:18.337Z,101479.38
2019-06-08T12:36:48.067Z,101461.38
2019-06-08T12:39:18.595Z,101454.14
2019-06-08T12:41:47.887Z,101473.91
2019-06-08T12:44:17.391Z,101464.00
2019-06-08T12:46:48.341Z,101466.67
2019-06-08T12:49:18.661Z,101457.59
2019-06-08T12:51:50.788Z,101461.91
2019-06-08T12:54:18.960Z,101455.17
2019-06-08T12:56:47.950Z,101461.58
2019-06-08T12:59:20.871Z,101467.72
2019-06-08T13:01:48.438Z,101457.77
2019-06-08T13:04:18.686Z,101448.60
2019-06-08T13:06:48.223Z,101458.53
2019-06-08T13:09:16.742Z,101472.17
2019-06-08T13:11:45.452Z,101475.30
2019-06-08T13:14:14.730Z,101462.48
2019-06-08T13:16:43.198Z,101484.01
2019-06-08T13:19:13.085Z,101476.38
2019-06-08T13:21:41.779Z,101482.51
2019-06-08T13:24:11.315Z,101483.48
2019-06-08T13:26:39.912Z,101480.04
2019-06-08T13:29:09.190Z,101474.39
2019-06-08T13:31:38.528Z,101488.07
2019-06-08T13:34:07.806Z,101486.53
2019-06-08T13:36:40.243Z,101490.28
2019-06-08T13:39:09.841Z,101486.05
2019-06-08T13:41:38.396Z,101493.73
2019-06-08T13:44:08.418Z,101495.58
2019-06-08T13:46:37.916Z,101504.20
2019-06-08T13:49:08.271Z,101495.08
2019-06-08T13:51:38.122Z,101507.13
2019-06-08T13:54:08.338Z,101504.75
2019-06-08T13:56:38.479Z,101513.27
2019-06-08T13:59:07.943Z,101513.27
2019-06-08T14:01:37.894Z,101517.77
2019-06-08T14:04:08.810Z,101516.74
2019-06-08T14:06:36.634Z,101512.31
2019-06-08T14:09:08.323Z,101526.81
2019-06-08T14:11:36.915Z,101508.08
2019-06-08T14:14:05.376Z,101533.45
2019-06-08T14:16:33.812Z,101515.47
2019-06-08T14:19:02.237Z,101510.38
2019-06-08T14:21:38.776Z,101521.11
2019-06-08T14:24:00.836Z,101512.32
2019-06-08T14:26:29.677Z,101515.58
2019-06-08T14:29:00.786Z,101513.67
2019-06-08T14:31:31.574Z,101521.51
2019-06-08T14:33:58.499Z,101520.55
2019-06-08T14:36:29.073Z,101512.61
2019-06-08T14:39:02.005Z,101520.63
2019-06-08T14:41:31.179Z,101529.05
2019-06-08T14:43:58.627Z,101527.22
2019-06-08T14:46:28.761Z,101521.14
2019-06-08T14:48:58.396Z,101514.52
2019-06-08T14:51:30.183Z,101520.98
2019-06-08T14:53:58.770Z,101515.52
2019-06-08T14:56:29.671Z,101513.64
2019-06-08T14:58:57.636Z,101519.59
2019-06-08T15:01:29.695Z,101514.67
2019-06-08T15:03:58.577Z,101526.11
2019-06-08T15:06:31.061Z,101517.42
2019-06-08T15:08:58.192Z,101526.27
2019-06-08T15:11:28.807Z,101524.91
2019-06-08T15:13:58.059Z,101539.03
2019-06-08T15:16:26.271Z,101543.59
2019-06-08T15:18:54.695Z,101530.20
2019-06-08T15:21:25.545Z,101528.48
2019-06-08T15:23:53.569Z,101530.71
2019-06-08T15:26:29.040Z,101542.67
2019-06-08T15:28:52.553Z,101532.33
2019-06-08T15:31:21.165Z,101528.33
2019-06-08T15:33:49.639Z,101533.36
2019-06-08T15:36:20.499Z,101539.00
2019-06-08T15:38:48.269Z,101549.03
2019-06-08T15:41:18.134Z,101548.59
2019-06-08T15:43:48.094Z,101552.36
2019-06-08T15:46:18.353Z,101558.81
2019-06-08T15:48:48.365Z,101557.48
2019-06-08T15:51:16.381Z,101564.20
2019-06-08T15:53:44.825Z,101557.97
2019-06-08T15:56:13.246Z,101557.33
2019-06-08T15:58:41.712Z,101562.70
2019-06-08T16:01:10.142Z,101572.53
2019-06-08T16:03:38.595Z,101566.23
2019-06-08T16:06:07.029Z,101573.39
2019-06-08T16:08:37.820Z,101565.37
2019-06-08T16:11:04.908Z,101565.47
2019-06-08T16:13:33.282Z,101565.66
2019-06-08T16:16:01.726Z,101568.31
2019-06-08T16:18:31.636Z,101578.04
2019-06-08T16:21:00.172Z,101572.51
2019-06-08T16:23:29.928Z,101560.82
2019-06-08T16:25:58.431Z,101577.97
2019-06-08T16:28:27.724Z,101572.88
2019-06-08T16:30:56.179Z,101579.84
2019-06-08T16:33:24.612Z,101582.02
2019-06-08T16:35:53.162Z,101583.74
2019-06-08T16:38:21.595Z,101584.81
2019-06-08T16:40:50.025Z,101584.66
2019-06-08T16:43:18.491Z,101593.28
2019-06-08T16:45:46.927Z,101617.08
2019-06-08T16:48:15.380Z,101629.80
2019-06-08T16:50:43.810Z,101628.62
2019-06-08T16:53:12.233Z,101619.31
2019-06-08T16:55:40.699Z,101621.77
2019-06-08T16:58:09.153Z,101621.73
2019-06-08T17:00:40.744Z,101623.27
2019-06-08T17:03:07.007Z,101614.70
2019-06-08T17:05:35.396Z,101605.97
2019-06-08T17:08:03.836Z,101613.70
2019-06-08T17:10:32.589Z,101612.38
2019-06-08T17:13:01.059Z,101612.02
2019-06-08T17:15:29.958Z,101610.05
2019-06-08T17:17:58.707Z,101615.36
2019-06-08T17:20:27.145Z,101619.98
2019-06-08T17:22:55.574Z,101615.16
2019-06-08T17:25:24.016Z,101613.96
2019-06-08T17:27:52.495Z,101614.22
2019-06-08T17:30:21.025Z,101624.55
2019-06-08T17:32:49.441Z,101623.93
2019-06-08T17:35:17.895Z,101626.41
2019-06-08T17:37:46.373Z,101624.86
2019-06-08T17:40:14.964Z,101633.91
2019-06-08T17:42:43.888Z,101642.45
2019-06-08T17:45:12.661Z,101657.61
2019-06-08T17:47:41.101Z,101666.88
2019-06-08T17:50:10.072Z,101645.42
2019-06-08T17:52:38.930Z,101606.42
2019-06-08T17:55:07.884Z,101610.98
2019-06-08T17:57:47.173Z,101623.69
2019-06-08T18:00:08.736Z,101631.16
2019-06-08T18:02:40.268Z,101635.00
2019-06-08T18:05:08.996Z,101637.73
2019-06-08T18:07:39.982Z,101637.95
2019-06-08T18:10:07.668Z,101636.81
2019-06-08T18:12:39.229Z,101647.63
2019-06-08T18:15:07.922Z,101666.22
2019-06-08T18:17:39.163Z,101687.84
2019-06-08T18:20:12.790Z,101700.50
2019-06-08T18:22:43.980Z,101676.34
2019-06-08T18:25:11.653Z,101651.03
2019-06-08T18:27:42.359Z,101640.89
2019-06-08T18:30:12.061Z,101642.25
2019-06-08T18:32:42.086Z,101644.59
2019-06-08T18:35:11.156Z,101635.78
2019-06-08T18:37:40.961Z,101653.80
2019-06-08T18:40:11.398Z,101660.66
2019-06-08T18:42:41.518Z,101650.50
2019-06-08T18:45:10.236Z,101664.79
2019-06-08T18:47:40.828Z,101658.00
2019-06-08T18:50:09.713Z,101660.95
2019-06-08T18:52:41.627Z,101669.50
2019-06-08T18:55:08.583Z,101682.97
2019-06-08T18:57:38.475Z,101704.84
2019-06-08T19:00:11.575Z,101717.58
2019-06-08T19:02:41.985Z,101713.69
2019-06-08T19:05:09.308Z,101714.84
2019-06-08T19:07:39.139Z,101715.53
2019-06-08T19:10:08.347Z,101729.34
2019-06-08T19:12:39.577Z,101725.16
2019-06-08T19:15:11.177Z,101727.70
2019-06-08T19:17:43.899Z,101722.66
2019-06-08T19:20:08.125Z,101721.16
2019-06-08T19:22:40.866Z,101720.27
2019-06-08T19:25:07.803Z,101716.39
2019-06-08T19:27:40.647Z,101717.92
2019-06-08T19:30:06.797Z,101717.38
2019-06-08T19:32:37.673Z,101706.88
2019-06-08T19:35:07.351Z,101707.03
2019-06-08T19:37:35.849Z,101709.69
2019-06-08T19:40:07.439Z,101704.76
2019-06-08T19:42:44.744Z,101708.25
2019-06-08T19:45:08.777Z,101711.74
2019-06-08T19:47:36.605Z,101711.09
2019-06-08T19:50:07.838Z,101661.62
2019-06-08T19:52:39.969Z,101723.11
2019-06-08T19:55:08.038Z,101727.81
2019-06-08T19:57:36.581Z,101730.50
2019-06-08T20:00:07.494Z,101730.50
2019-06-08T20:02:35.980Z,101736.38
2019-06-08T20:05:07.626Z,101736.88
2019-06-08T20:07:37.598Z,101741.25
2019-06-08T20:10:08.098Z,101739.20
2019-06-08T20:12:37.287Z,101738.36
2019-06-08T20:15:09.813Z,101745.09
2019-06-08T20:17:38.252Z,101744.24
2019-06-08T20:20:10.646Z,101743.45
2019-06-08T20:22:37.917Z,101743.34
2019-06-08T20:25:10.420Z,101751.58
2019-06-08T20:27:37.599Z,101747.69
2019-06-08T20:30:09.573Z,101754.89
2019-06-08T20:32:37.865Z,101761.77
2019-06-08T20:35:08.125Z,101759.37
2019-06-08T20:37:37.701Z,101765.91
2019-06-08T20:40:13.640Z,101769.37
2019-06-08T20:42:37.833Z,101775.80
2019-06-08T20:45:08.254Z,101774.30
2019-06-08T20:47:38.904Z,101780.84
2019-06-08T20:50:07.541Z,101783.84
2019-06-08T20:52:37.758Z,101760.18
2019-06-08T20:55:08.018Z,101791.47
2019-06-08T20:57:36.406Z,101790.17
2019-06-08T21:00:11.615Z,101790.71
2019-06-08T21:02:39.053Z,101787.39
2019-06-08T21:05:08.348Z,101797.08
2019-06-08T21:07:37.234Z,101796.05
2019-06-08T21:10:08.560Z,101793.02
2019-06-08T21:12:37.978Z,101801.60
2019-06-08T21:15:07.614Z,101805.77
2019-06-08T21:17:38.211Z,101802.34
2019-06-08T21:20:08.560Z,101805.87
2019-06-08T21:22:36.462Z,101801.44
2019-06-08T21:25:08.661Z,101806.38
2019-06-08T21:27:38.461Z,101812.98
2019-06-08T21:30:19.849Z,101812.91
2019-06-08T21:32:38.002Z,101817.65
2019-06-08T21:35:07.612Z,101815.55
2019-06-08T21:37:37.709Z,101823.96
2019-06-08T21:40:08.461Z,101829.31
2019-06-08T21:42:37.241Z,101821.59
2019-06-08T21:45:09.513Z,101829.59
2019-06-08T21:47:37.842Z,101833.63
2019-06-08T21:50:08.066Z,101832.22
2019-06-08T21:52:36.659Z,101836.11
2019-06-08T21:55:07.292Z,101833.56
2019-06-08T21:57:37.142Z,101832.02
2019-06-08T22:00:27.005Z,101838.73
2019-06-08T22:02:38.230Z,101836.26
2019-06-08T22:05:08.240Z,101842.89
2019-06-08T22:07:37.760Z,101842.40
2019-06-08T22:10:07.587Z,101843.41
2019-06-08T22:12:40.081Z,101845.25
2019-06-08T22:15:09.374Z,101840.66
2019-06-08T22:17:38.449Z,101843.90
2019-06-08T22:20:08.214Z,101838.88
2019-06-08T22:22:37.787Z,101842.77
2019-06-08T22:25:08.286Z,101840.42
2019-06-08T22:27:38.125Z,101846.82
2019-06-08T22:30:13.440Z,101850.92
2019-06-08T22:32:38.740Z,101848.88
2019-06-08T22:35:08.163Z,101856.30
2019-06-08T22:37:37.941Z,101856.50
2019-06-08T22:40:08.282Z,101855.11
2019-06-08T22:42:37.581Z,101855.72
2019-06-08T22:45:08.369Z,101850.83
2019-06-08T22:47:38.733Z,101861.53
2019-06-08T22:50:07.924Z,101862.73
2019-06-08T22:52:37.552Z,101863.09
2019-06-08T22:55:10.235Z,101864.42
2019-06-08T22:57:37.670Z,101796.33
2019-06-08T23:00:16.734Z,101866.41
2019-06-08T23:02:40.016Z,101867.53
2019-06-08T23:05:09.473Z,101808.42
2019-06-08T23:07:37.967Z,101864.16
2019-06-08T23:10:08.953Z,101861.62
2019-06-08T23:12:38.304Z,101866.33
2019-06-08T23:15:08.378Z,101868.31
2019-06-08T23:17:38.703Z,101868.60
2019-06-08T23:20:08.678Z,101873.63
2019-06-08T23:22:38.403Z,101873.21
2019-06-08T23:25:09.469Z,101869.17
2019-06-08T23:27:38.220Z,101880.64
2019-06-08T23:30:10.199Z,101864.91
2019-06-08T23:32:38.777Z,101883.09
2019-06-08T23:35:09.387Z,101879.27
2019-06-08T23:37:38.097Z,101877.93
2019-06-08T23:40:07.594Z,101881.97
2019-06-08T23:42:38.314Z,101872.62
2019-06-08T23:45:10.167Z,101886.92
2019-06-08T23:47:38.568Z,101884.73
2019-06-08T23:50:10.055Z,101880.31
2019-06-08T23:52:38.305Z,101892.19
2019-06-08T23:55:10.506Z,101897.22
2019-06-08T23:57:38.035Z,101890.00
